sensor_id;sensor_type;location;lat;lon;timestamp;temperature;humidity
21047;DHT22;10682;50.874;3.656;2023-11-21T00:01:27;9.20;99.90
21047;DHT22;10682;50.874;3.656;2023-11-21T00:03:55;9.20;99.90
21047;DHT22;10682;50.874;3.656;2023-11-21T00:06:22;9.10;99.90
21047;DHT22;10682;50.874;3.656;2023-11-21T00:08:49;9.10;99.90
21047;DHT22;10682;50.874;3.656;2023-11-21T00:11:16;9.00;99.90
21047;DHT22;10682;50.874;3.656;2023-11-21T00:13:43;9.00;99.90
21047;DHT22;10682;50.874;3.656;2023-11-21T00:16:10;9.00;99.90
21047;DHT22;10682;50.874;3.656;2023-11-21T00:18:38;9.00;99.90
21047;DHT22;10682;50.874;3.656;2023-11-21T00:21:06;9.00;99.90
21047;DHT22;10682;50.874;3.656;2023-11-21T00:23:33;9.10;99.90
21047;DHT22;10682;50.874;3.656;2023-11-21T00:26:00;9.10;99.90
21047;DHT22;10682;50.874;3.656;2023-11-21T00:28:33;9.10;99.90
21047;DHT22;10682;50.874;3.656;2023-11-21T00:31:00;9.10;99.90
21047;DHT22;10682;50.874;3.656;2023-11-21T00:33:27;9.20;99.90
21047;DHT22;10682;50.874;3.656;2023-11-21T00:35:54;9.30;99.90
21047;DHT22;10682;50.874;3.656;2023-11-21T00:38:22;9.20;99.90
21047;DHT22;10682;50.874;3.656;2023-11-21T00:40:49;9.20;99.90
21047;DHT22;10682;50.874;3.656;2023-11-21T00:43:16;9.20;99.90
21047;DHT22;10682;50.874;3.656;2023-11-21T00:45:43;9.20;99.90
21047;DHT22;10682;50.874;3.656;2023-11-21T00:48:10;9.30;99.90
21047;DHT22;10682;50.874;3.656;2023-11-21T00:50:39;9.20;99.90
21047;DHT22;10682;50.874;3.656;2023-11-21T00:53:06;9.30;99.90
21047;DHT22;10682;50.874;3.656;2023-11-21T00:55:34;9.30;99.90
21047;DHT22;10682;50.874;3.656;2023-11-21T00:58:01;9.40;99.90
21047;DHT22;10682;50.874;3.656;2023-11-21T01:00:30;9.40;99.90
21047;DHT22;10682;50.874;3.656;2023-11-21T01:02:58;9.40;99.90
21047;DHT22;10682;50.874;3.656;2023-11-21T01:05:25;9.40;99.90
21047;DHT22;10682;50.874;3.656;2023-11-21T01:07:52;9.40;99.90
21047;DHT22;10682;50.874;3.656;2023-11-21T01:10:19;9.40;99.90
21047;DHT22;10682;50.874;3.656;2023-11-21T01:12:47;9.40;99.90
21047;DHT22;10682;50.874;3.656;2023-11-21T01:15:15;9.40;99.90
21047;DHT22;10682;50.874;3.656;2023-11-21T01:17:42;9.40;99.90
21047;DHT22;10682;50.874;3.656;2023-11-21T01:20:10;9.50;99.90
21047;DHT22;10682;50.874;3.656;2023-11-21T01:22:40;9.50;99.90
21047;DHT22;10682;50.874;3.656;2023-11-21T01:25:08;9.50;99.90
21047;DHT22;10682;50.874;3.656;2023-11-21T01:27:37;9.50;99.90
21047;DHT22;10682;50.874;3.656;2023-11-21T01:30:05;9.40;99.90
21047;DHT22;10682;50.874;3.656;2023-11-21T01:32:34;9.50;99.90
21047;DHT22;10682;50.874;3.656;2023-11-21T01:35:02;9.50;99.90
21047;DHT22;10682;50.874;3.656;2023-11-21T01:37:29;9.50;99.90
21047;DHT22;10682;50.874;3.656;2023-11-21T01:39:57;9.50;99.90
21047;DHT22;10682;50.874;3.656;2023-11-21T01:42:25;9.40;99.90
21047;DHT22;10682;50.874;3.656;2023-11-21T01:44:53;9.40;99.90
21047;DHT22;10682;50.874;3.656;2023-11-21T01:47:21;9.40;99.90
21047;DHT22;10682;50.874;3.656;2023-11-21T01:49:48;9.40;99.90
21047;DHT22;10682;50.874;3.656;2023-11-21T01:52:15;9.40;99.90
21047;DHT22;10682;50.874;3.656;2023-11-21T01:54:43;9.40;99.90
21047;DHT22;10682;50.874;3.656;2023-11-21T01:57:10;9.40;99.90
21047;DHT22;10682;50.874;3.656;2023-11-21T01:59:38;9.30;99.90
21047;DHT22;10682;50.874;3.656;2023-11-21T02:02:08;9.40;99.90
21047;DHT22;10682;50.874;3.656;2023-11-21T02:04:37;9.40;99.90
21047;DHT22;10682;50.874;3.656;2023-11-21T02:07:04;9.40;99.90
21047;DHT22;10682;50.874;3.656;2023-11-21T02:09:34;9.30;99.90
21047;DHT22;10682;50.874;3.656;2023-11-21T02:12:05;9.40;99.90
21047;DHT22;10682;50.874;3.656;2023-11-21T02:14:32;9.40;99.90
21047;DHT22;10682;50.874;3.656;2023-11-21T02:17:00;9.40;99.90
21047;DHT22;10682;50.874;3.656;2023-11-21T02:19:28;9.40;99.90
21047;DHT22;10682;50.874;3.656;2023-11-21T02:21:57;9.40;99.90
21047;DHT22;10682;50.874;3.656;2023-11-21T02:24:30;9.40;99.90
21047;DHT22;10682;50.874;3.656;2023-11-21T02:26:57;9.40;99.90
21047;DHT22;10682;50.874;3.656;2023-11-21T02:29:25;9.40;99.90
21047;DHT22;10682;50.874;3.656;2023-11-21T02:31:55;9.40;99.90
21047;DHT22;10682;50.874;3.656;2023-11-21T02:34:23;9.40;99.90
21047;DHT22;10682;50.874;3.656;2023-11-21T02:36:52;9.40;99.90
21047;DHT22;10682;50.874;3.656;2023-11-21T02:39:28;9.40;99.90
21047;DHT22;10682;50.874;3.656;2023-11-21T02:41:55;9.40;99.90
21047;DHT22;10682;50.874;3.656;2023-11-21T02:44:22;9.40;99.90
21047;DHT22;10682;50.874;3.656;2023-11-21T02:46:49;9.40;99.90
21047;DHT22;10682;50.874;3.656;2023-11-21T02:49:16;9.40;99.90
21047;DHT22;10682;50.874;3.656;2023-11-21T02:51:43;9.40;99.90
21047;DHT22;10682;50.874;3.656;2023-11-21T02:54:11;9.40;99.90
21047;DHT22;10682;50.874;3.656;2023-11-21T02:56:38;9.40;99.90
21047;DHT22;10682;50.874;3.656;2023-11-21T02:59:06;9.40;99.90
21047;DHT22;10682;50.874;3.656;2023-11-21T03:01:33;9.40;99.90
21047;DHT22;10682;50.874;3.656;2023-11-21T03:04:01;9.40;99.90
21047;DHT22;10682;50.874;3.656;2023-11-21T03:06:29;9.40;99.90
21047;DHT22;10682;50.874;3.656;2023-11-21T03:08:56;9.40;99.90
21047;DHT22;10682;50.874;3.656;2023-11-21T03:11:23;9.40;99.90
21047;DHT22;10682;50.874;3.656;2023-11-21T03:13:50;9.50;99.90
21047;DHT22;10682;50.874;3.656;2023-11-21T03:16:18;9.40;99.90
21047;DHT22;10682;50.874;3.656;2023-11-21T03:18:46;9.40;99.90
21047;DHT22;10682;50.874;3.656;2023-11-21T03:21:13;9.50;99.90
21047;DHT22;10682;50.874;3.656;2023-11-21T03:23:40;9.50;99.90
21047;DHT22;10682;50.874;3.656;2023-11-21T03:26:12;9.50;99.90
21047;DHT22;10682;50.874;3.656;2023-11-21T03:28:40;9.40;99.90
21047;DHT22;10682;50.874;3.656;2023-11-21T03:31:07;9.50;99.90
21047;DHT22;10682;50.874;3.656;2023-11-21T03:33:35;9.50;99.90
21047;DHT22;10682;50.874;3.656;2023-11-21T03:36:03;9.50;99.90
21047;DHT22;10682;50.874;3.656;2023-11-21T03:38:30;9.50;99.90
21047;DHT22;10682;50.874;3.656;2023-11-21T03:40:58;9.60;99.90
21047;DHT22;10682;50.874;3.656;2023-11-21T03:43:26;9.60;99.90
21047;DHT22;10682;50.874;3.656;2023-11-21T03:45:54;9.60;99.90
21047;DHT22;10682;50.874;3.656;2023-11-21T03:48:21;9.60;99.90
21047;DHT22;10682;50.874;3.656;2023-11-21T03:50:49;9.60;99.90
21047;DHT22;10682;50.874;3.656;2023-11-21T03:53:17;9.60;99.90
21047;DHT22;10682;50.874;3.656;2023-11-21T03:55:45;9.60;99.90
21047;DHT22;10682;50.874;3.656;2023-11-21T03:58:12;9.60;99.90
21047;DHT22;10682;50.874;3.656;2023-11-21T04:00:39;9.60;99.90
21047;DHT22;10682;50.874;3.656;2023-11-21T04:03:06;9.60;99.90
21047;DHT22;10682;50.874;3.656;2023-11-21T04:05:33;9.60;99.90
21047;DHT22;10682;50.874;3.656;2023-11-21T04:08:00;9.60;99.90
21047;DHT22;10682;50.874;3.656;2023-11-21T04:10:27;9.70;99.90
21047;DHT22;10682;50.874;3.656;2023-11-21T04:12:55;9.70;99.90
21047;DHT22;10682;50.874;3.656;2023-11-21T04:15:22;9.60;99.90
21047;DHT22;10682;50.874;3.656;2023-11-21T04:17:49;9.60;99.90
21047;DHT22;10682;50.874;3.656;2023-11-21T04:20:16;9.60;99.90
21047;DHT22;10682;50.874;3.656;2023-11-21T04:22:44;9.60;99.90
21047;DHT22;10682;50.874;3.656;2023-11-21T04:25:14;9.60;99.90
21047;DHT22;10682;50.874;3.656;2023-11-21T04:27:43;9.60;99.90
21047;DHT22;10682;50.874;3.656;2023-11-21T04:30:11;9.60;99.90
21047;DHT22;10682;50.874;3.656;2023-11-21T04:32:39;9.60;99.90
21047;DHT22;10682;50.874;3.656;2023-11-21T04:35:07;9.60;99.90
21047;DHT22;10682;50.874;3.656;2023-11-21T04:37:35;9.60;99.90
21047;DHT22;10682;50.874;3.656;2023-11-21T04:40:04;9.60;99.90
21047;DHT22;10682;50.874;3.656;2023-11-21T04:42:37;9.60;99.90
21047;DHT22;10682;50.874;3.656;2023-11-21T04:45:05;9.60;99.90
21047;DHT22;10682;50.874;3.656;2023-11-21T04:47:37;9.60;99.90
21047;DHT22;10682;50.874;3.656;2023-11-21T04:50:05;9.60;99.90
21047;DHT22;10682;50.874;3.656;2023-11-21T04:52:33;9.60;99.90
21047;DHT22;10682;50.874;3.656;2023-11-21T04:55:01;9.50;99.90
21047;DHT22;10682;50.874;3.656;2023-11-21T04:57:29;9.50;99.90
21047;DHT22;10682;50.874;3.656;2023-11-21T04:59:56;9.50;99.90
21047;DHT22;10682;50.874;3.656;2023-11-21T05:02:24;9.60;99.90
21047;DHT22;10682;50.874;3.656;2023-11-21T05:05:02;9.50;99.90
21047;DHT22;10682;50.874;3.656;2023-11-21T05:07:29;9.50;99.90
21047;DHT22;10682;50.874;3.656;2023-11-21T05:09:58;9.50;99.90
21047;DHT22;10682;50.874;3.656;2023-11-21T05:12:26;9.60;99.90
21047;DHT22;10682;50.874;3.656;2023-11-21T05:14:53;9.60;99.90
21047;DHT22;10682;50.874;3.656;2023-11-21T05:17:20;9.70;99.90
21047;DHT22;10682;50.874;3.656;2023-11-21T05:19:47;9.70;99.90
21047;DHT22;10682;50.874;3.656;2023-11-21T05:22:16;9.70;99.90
21047;DHT22;10682;50.874;3.656;2023-11-21T05:24:43;9.70;99.90
21047;DHT22;10682;50.874;3.656;2023-11-21T05:27:10;9.80;99.90
21047;DHT22;10682;50.874;3.656;2023-11-21T05:29:37;9.80;99.90
21047;DHT22;10682;50.874;3.656;2023-11-21T05:32:04;9.80;99.90
21047;DHT22;10682;50.874;3.656;2023-11-21T05:34:32;9.80;99.90
21047;DHT22;10682;50.874;3.656;2023-11-21T05:36:59;9.70;99.90
21047;DHT22;10682;50.874;3.656;2023-11-21T05:39:26;9.70;99.90
21047;DHT22;10682;50.874;3.656;2023-11-21T05:41:54;9.70;99.90
21047;DHT22;10682;50.874;3.656;2023-11-21T05:44:22;9.80;99.90
21047;DHT22;10682;50.874;3.656;2023-11-21T05:46:50;9.80;99.90
21047;DHT22;10682;50.874;3.656;2023-11-21T05:49:17;9.80;99.90
21047;DHT22;10682;50.874;3.656;2023-11-21T05:51:48;9.80;99.90
21047;DHT22;10682;50.874;3.656;2023-11-21T05:54:15;9.80;99.90
21047;DHT22;10682;50.874;3.656;2023-11-21T05:56:47;9.80;99.90
21047;DHT22;10682;50.874;3.656;2023-11-21T05:59:16;9.90;99.90
21047;DHT22;10682;50.874;3.656;2023-11-21T06:01:44;9.90;99.90
21047;DHT22;10682;50.874;3.656;2023-11-21T06:04:13;9.90;99.90
21047;DHT22;10682;50.874;3.656;2023-11-21T06:06:41;9.90;99.90
21047;DHT22;10682;50.874;3.656;2023-11-21T06:09:08;9.90;99.90
21047;DHT22;10682;50.874;3.656;2023-11-21T06:11:35;9.90;99.90
21047;DHT22;10682;50.874;3.656;2023-11-21T06:14:03;9.90;99.90
21047;DHT22;10682;50.874;3.656;2023-11-21T06:16:30;9.90;99.90
21047;DHT22;10682;50.874;3.656;2023-11-21T06:18:57;9.90;99.90
21047;DHT22;10682;50.874;3.656;2023-11-21T06:21:24;9.90;99.90
21047;DHT22;10682;50.874;3.656;2023-11-21T06:23:51;9.90;99.90
21047;DHT22;10682;50.874;3.656;2023-11-21T06:26:19;9.90;99.90
21047;DHT22;10682;50.874;3.656;2023-11-21T06:28:47;9.90;99.90
21047;DHT22;10682;50.874;3.656;2023-11-21T06:31:14;9.90;99.90
21047;DHT22;10682;50.874;3.656;2023-11-21T06:33:41;9.90;99.90
21047;DHT22;10682;50.874;3.656;2023-11-21T06:36:09;9.90;99.90
21047;DHT22;10682;50.874;3.656;2023-11-21T06:38:38;9.90;99.90
21047;DHT22;10682;50.874;3.656;2023-11-21T06:41:06;9.90;99.90
21047;DHT22;10682;50.874;3.656;2023-11-21T06:43:34;9.90;99.90
21047;DHT22;10682;50.874;3.656;2023-11-21T06:46:01;9.90;99.90
21047;DHT22;10682;50.874;3.656;2023-11-21T06:48:28;9.90;99.90
21047;DHT22;10682;50.874;3.656;2023-11-21T06:50:57;9.90;99.90
21047;DHT22;10682;50.874;3.656;2023-11-21T06:53:24;9.90;99.90
21047;DHT22;10682;50.874;3.656;2023-11-21T06:55:53;9.90;99.90
21047;DHT22;10682;50.874;3.656;2023-11-21T06:58:20;9.90;99.90
21047;DHT22;10682;50.874;3.656;2023-11-21T07:00:48;10.00;99.90
21047;DHT22;10682;50.874;3.656;2023-11-21T07:03:29;9.90;99.90
21047;DHT22;10682;50.874;3.656;2023-11-21T07:05:56;9.90;99.90
21047;DHT22;10682;50.874;3.656;2023-11-21T07:08:23;9.90;99.90
21047;DHT22;10682;50.874;3.656;2023-11-21T07:10:50;9.90;99.90
21047;DHT22;10682;50.874;3.656;2023-11-21T07:13:18;9.90;99.90
21047;DHT22;10682;50.874;3.656;2023-11-21T07:15:45;9.90;99.90
21047;DHT22;10682;50.874;3.656;2023-11-21T07:18:12;9.80;99.90
21047;DHT22;10682;50.874;3.656;2023-11-21T07:20:40;9.90;99.90
21047;DHT22;10682;50.874;3.656;2023-11-21T07:23:07;9.90;99.90
21047;DHT22;10682;50.874;3.656;2023-11-21T07:25:34;10.00;99.90
21047;DHT22;10682;50.874;3.656;2023-11-21T07:28:01;10.00;99.90
21047;DHT22;10682;50.874;3.656;2023-11-21T07:30:29;10.00;99.90
21047;DHT22;10682;50.874;3.656;2023-11-21T07:32:56;10.00;99.90
21047;DHT22;10682;50.874;3.656;2023-11-21T07:35:23;10.00;99.90
21047;DHT22;10682;50.874;3.656;2023-11-21T07:37:50;10.10;99.90
21047;DHT22;10682;50.874;3.656;2023-11-21T07:40:17;10.10;99.90
21047;DHT22;10682;50.874;3.656;2023-11-21T07:42:44;10.10;99.90
21047;DHT22;10682;50.874;3.656;2023-11-21T07:45:11;10.10;99.90
21047;DHT22;10682;50.874;3.656;2023-11-21T07:47:39;10.10;99.90
21047;DHT22;10682;50.874;3.656;2023-11-21T07:50:07;10.10;99.90
21047;DHT22;10682;50.874;3.656;2023-11-21T07:52:34;10.10;99.90
21047;DHT22;10682;50.874;3.656;2023-11-21T07:55:02;10.20;99.90
21047;DHT22;10682;50.874;3.656;2023-11-21T07:57:30;10.20;99.90
21047;DHT22;10682;50.874;3.656;2023-11-21T07:59:57;10.20;99.90
21047;DHT22;10682;50.874;3.656;2023-11-21T08:02:24;10.20;99.90
21047;DHT22;10682;50.874;3.656;2023-11-21T08:04:53;10.30;99.90
21047;DHT22;10682;50.874;3.656;2023-11-21T08:07:24;10.40;99.90
21047;DHT22;10682;50.874;3.656;2023-11-21T08:10:24;10.40;99.90
21047;DHT22;10682;50.874;3.656;2023-11-21T08:12:51;10.50;99.90
21047;DHT22;10682;50.874;3.656;2023-11-21T08:15:20;10.50;99.90
21047;DHT22;10682;50.874;3.656;2023-11-21T08:17:47;10.60;99.90
21047;DHT22;10682;50.874;3.656;2023-11-21T08:20:15;10.60;99.90
21047;DHT22;10682;50.874;3.656;2023-11-21T08:22:45;10.70;99.90
21047;DHT22;10682;50.874;3.656;2023-11-21T08:25:15;10.70;99.90
21047;DHT22;10682;50.874;3.656;2023-11-21T08:27:47;10.70;99.90
21047;DHT22;10682;50.874;3.656;2023-11-21T08:30:14;10.80;99.90
21047;DHT22;10682;50.874;3.656;2023-11-21T08:32:43;10.80;99.90
21047;DHT22;10682;50.874;3.656;2023-11-21T08:35:10;10.90;99.90
21047;DHT22;10682;50.874;3.656;2023-11-21T08:37:39;10.90;99.90
21047;DHT22;10682;50.874;3.656;2023-11-21T08:40:07;10.90;99.90
21047;DHT22;10682;50.874;3.656;2023-11-21T08:42:43;10.90;99.90
21047;DHT22;10682;50.874;3.656;2023-11-21T08:45:12;10.90;99.90
21047;DHT22;10682;50.874;3.656;2023-11-21T08:47:39;10.90;99.90
21047;DHT22;10682;50.874;3.656;2023-11-21T08:50:07;10.90;99.90
21047;DHT22;10682;50.874;3.656;2023-11-21T08:52:35;10.90;99.90
21047;DHT22;10682;50.874;3.656;2023-11-21T08:55:10;10.90;99.90
21047;DHT22;10682;50.874;3.656;2023-11-21T08:57:39;10.90;99.90
21047;DHT22;10682;50.874;3.656;2023-11-21T09:00:08;10.90;99.90
21047;DHT22;10682;50.874;3.656;2023-11-21T09:02:39;10.90;99.90
21047;DHT22;10682;50.874;3.656;2023-11-21T09:05:09;11.00;99.90
21047;DHT22;10682;50.874;3.656;2023-11-21T09:07:40;11.00;99.90
21047;DHT22;10682;50.874;3.656;2023-11-21T09:10:08;11.10;99.90
21047;DHT22;10682;50.874;3.656;2023-11-21T09:12:37;11.30;99.90
21047;DHT22;10682;50.874;3.656;2023-11-21T09:15:05;11.30;99.90
21047;DHT22;10682;50.874;3.656;2023-11-21T09:17:34;11.30;99.90
21047;DHT22;10682;50.874;3.656;2023-11-21T09:20:02;11.30;99.90
21047;DHT22;10682;50.874;3.656;2023-11-21T09:22:32;11.40;99.90
21047;DHT22;10682;50.874;3.656;2023-11-21T09:25:00;11.50;99.90
21047;DHT22;10682;50.874;3.656;2023-11-21T09:27:27;11.60;99.90
21047;DHT22;10682;50.874;3.656;2023-11-21T09:29:54;11.70;99.90
21047;DHT22;10682;50.874;3.656;2023-11-21T09:32:22;11.80;99.90
21047;DHT22;10682;50.874;3.656;2023-11-21T09:34:49;11.80;99.90
21047;DHT22;10682;50.874;3.656;2023-11-21T09:37:17;11.90;99.90
21047;DHT22;10682;50.874;3.656;2023-11-21T09:39:44;11.90;99.90
21047;DHT22;10682;50.874;3.656;2023-11-21T09:42:23;11.90;99.90
21047;DHT22;10682;50.874;3.656;2023-11-21T09:45:15;12.00;99.90
21047;DHT22;10682;50.874;3.656;2023-11-21T09:47:46;12.10;99.90
21047;DHT22;10682;50.874;3.656;2023-11-21T09:50:17;12.20;99.90
21047;DHT22;10682;50.874;3.656;2023-11-21T09:55:34;12.80;99.90
21047;DHT22;10682;50.874;3.656;2023-11-21T09:58:05;13.10;99.90
21047;DHT22;10682;50.874;3.656;2023-11-21T10:00:44;13.20;99.90
21047;DHT22;10682;50.874;3.656;2023-11-21T10:03:15;13.30;99.90
21047;DHT22;10682;50.874;3.656;2023-11-21T10:05:44;13.30;99.90
21047;DHT22;10682;50.874;3.656;2023-11-21T10:08:17;13.30;99.90
21047;DHT22;10682;50.874;3.656;2023-11-21T10:10:46;13.20;99.90
21047;DHT22;10682;50.874;3.656;2023-11-21T10:13:18;13.00;99.90
21047;DHT22;10682;50.874;3.656;2023-11-21T10:15:51;12.90;99.90
21047;DHT22;10682;50.874;3.656;2023-11-21T10:18:20;12.90;99.90
21047;DHT22;10682;50.874;3.656;2023-11-21T10:20:50;12.80;99.90
21047;DHT22;10682;50.874;3.656;2023-11-21T10:23:22;12.70;99.90
21047;DHT22;10682;50.874;3.656;2023-11-21T10:25:52;12.70;99.90
21047;DHT22;10682;50.874;3.656;2023-11-21T10:28:21;12.60;99.90
21047;DHT22;10682;50.874;3.656;2023-11-21T10:30:48;12.60;99.90
21047;DHT22;10682;50.874;3.656;2023-11-21T10:33:33;12.60;99.90
21047;DHT22;10682;50.874;3.656;2023-11-21T10:36:00;12.60;99.90
21047;DHT22;10682;50.874;3.656;2023-11-21T10:38:28;12.60;99.90
21047;DHT22;10682;50.874;3.656;2023-11-21T10:41:17;12.60;99.90
21047;DHT22;10682;50.874;3.656;2023-11-21T10:43:45;12.60;99.90
21047;DHT22;10682;50.874;3.656;2023-11-21T10:46:13;12.50;99.90
21047;DHT22;10682;50.874;3.656;2023-11-21T10:48:41;12.40;99.90
21047;DHT22;10682;50.874;3.656;2023-11-21T10:51:10;12.40;99.90
21047;DHT22;10682;50.874;3.656;2023-11-21T10:53:40;12.40;99.90
21047;DHT22;10682;50.874;3.656;2023-11-21T10:56:13;12.40;99.90
21047;DHT22;10682;50.874;3.656;2023-11-21T10:58:53;12.40;99.90
21047;DHT22;10682;50.874;3.656;2023-11-21T11:01:34;12.40;99.90
21047;DHT22;10682;50.874;3.656;2023-11-21T11:04:05;12.50;99.90
21047;DHT22;10682;50.874;3.656;2023-11-21T11:06:33;12.70;99.90
21047;DHT22;10682;50.874;3.656;2023-11-21T11:09:02;13.10;99.90
21047;DHT22;10682;50.874;3.656;2023-11-21T11:11:32;13.40;99.90
21047;DHT22;10682;50.874;3.656;2023-11-21T11:14:03;13.50;99.90
21047;DHT22;10682;50.874;3.656;2023-11-21T11:16:30;13.80;99.90
21047;DHT22;10682;50.874;3.656;2023-11-21T11:19:00;13.90;99.90
21047;DHT22;10682;50.874;3.656;2023-11-21T11:21:49;13.90;99.90
21047;DHT22;10682;50.874;3.656;2023-11-21T11:37:00;12.90;99.90
21047;DHT22;10682;50.874;3.656;2023-11-21T11:39:35;12.70;99.90
21047;DHT22;10682;50.874;3.656;2023-11-21T11:42:11;12.60;99.90
21047;DHT22;10682;50.874;3.656;2023-11-21T11:47:25;12.30;99.90
21047;DHT22;10682;50.874;3.656;2023-11-21T11:50:09;12.30;99.90
21047;DHT22;10682;50.874;3.656;2023-11-21T11:52:45;12.30;99.90
21047;DHT22;10682;50.874;3.656;2023-11-21T11:55:15;12.30;99.90
21047;DHT22;10682;50.874;3.656;2023-11-21T11:57:47;12.30;99.90
21047;DHT22;10682;50.874;3.656;2023-11-21T12:00:18;12.30;99.90
21047;DHT22;10682;50.874;3.656;2023-11-21T12:02:50;12.30;99.90
21047;DHT22;10682;50.874;3.656;2023-11-21T12:05:24;12.20;99.90
21047;DHT22;10682;50.874;3.656;2023-11-21T12:07:59;12.10;99.90
21047;DHT22;10682;50.874;3.656;2023-11-21T12:10:29;12.10;99.90
21047;DHT22;10682;50.874;3.656;2023-11-21T12:12:59;12.00;99.90
21047;DHT22;10682;50.874;3.656;2023-11-21T12:15:28;12.00;99.90
21047;DHT22;10682;50.874;3.656;2023-11-21T12:17:57;12.00;99.90
21047;DHT22;10682;50.874;3.656;2023-11-21T12:20:28;12.00;99.90
21047;DHT22;10682;50.874;3.656;2023-11-21T12:22:57;12.10;99.90
21047;DHT22;10682;50.874;3.656;2023-11-21T12:25:28;12.20;99.90
21047;DHT22;10682;50.874;3.656;2023-11-21T12:27:59;12.20;99.90
21047;DHT22;10682;50.874;3.656;2023-11-21T12:30:31;12.20;99.90
21047;DHT22;10682;50.874;3.656;2023-11-21T12:33:00;12.20;99.90
21047;DHT22;10682;50.874;3.656;2023-11-21T12:35:31;12.30;99.90
21047;DHT22;10682;50.874;3.656;2023-11-21T12:38:03;12.40;99.90
21047;DHT22;10682;50.874;3.656;2023-11-21T12:40:36;12.50;99.90
21047;DHT22;10682;50.874;3.656;2023-11-21T12:43:03;12.50;99.90
21047;DHT22;10682;50.874;3.656;2023-11-21T12:45:32;12.40;99.90
21047;DHT22;10682;50.874;3.656;2023-11-21T12:48:04;12.30;99.90
21047;DHT22;10682;50.874;3.656;2023-11-21T12:50:38;12.20;99.90
21047;DHT22;10682;50.874;3.656;2023-11-21T12:53:08;12.20;99.90
21047;DHT22;10682;50.874;3.656;2023-11-21T12:55:39;12.10;99.90
21047;DHT22;10682;50.874;3.656;2023-11-21T12:58:10;12.00;99.90
21047;DHT22;10682;50.874;3.656;2023-11-21T13:00:46;11.90;99.90
21047;DHT22;10682;50.874;3.656;2023-11-21T13:03:17;12.00;99.90
21047;DHT22;10682;50.874;3.656;2023-11-21T13:05:47;11.90;99.90
21047;DHT22;10682;50.874;3.656;2023-11-21T13:08:21;12.00;99.90
21047;DHT22;10682;50.874;3.656;2023-11-21T13:10:52;12.00;99.90
21047;DHT22;10682;50.874;3.656;2023-11-21T13:13:23;11.90;99.90
21047;DHT22;10682;50.874;3.656;2023-11-21T13:15:57;11.90;99.90
21047;DHT22;10682;50.874;3.656;2023-11-21T13:18:28;12.00;99.90
21047;DHT22;10682;50.874;3.656;2023-11-21T13:21:05;12.00;99.90
21047;DHT22;10682;50.874;3.656;2023-11-21T13:23:43;11.90;99.90
21047;DHT22;10682;50.874;3.656;2023-11-21T13:26:13;11.90;99.90
21047;DHT22;10682;50.874;3.656;2023-11-21T13:28:43;11.90;99.90
21047;DHT22;10682;50.874;3.656;2023-11-21T13:31:14;11.90;99.90
21047;DHT22;10682;50.874;3.656;2023-11-21T13:33:49;11.90;99.90
21047;DHT22;10682;50.874;3.656;2023-11-21T13:36:32;11.80;99.90
21047;DHT22;10682;50.874;3.656;2023-11-21T13:39:03;11.80;99.90
21047;DHT22;10682;50.874;3.656;2023-11-21T13:41:52;11.90;99.90
21047;DHT22;10682;50.874;3.656;2023-11-21T13:44:21;11.80;99.90
21047;DHT22;10682;50.874;3.656;2023-11-21T13:47:08;11.90;99.90
21047;DHT22;10682;50.874;3.656;2023-11-21T13:49:35;11.90;99.90
21047;DHT22;10682;50.874;3.656;2023-11-21T13:52:03;11.90;99.90
21047;DHT22;10682;50.874;3.656;2023-11-21T13:54:30;11.90;99.90
21047;DHT22;10682;50.874;3.656;2023-11-21T13:56:57;11.90;99.90
21047;DHT22;10682;50.874;3.656;2023-11-21T13:59:27;11.90;99.90
21047;DHT22;10682;50.874;3.656;2023-11-21T14:01:57;11.90;99.90
21047;DHT22;10682;50.874;3.656;2023-11-21T14:04:27;12.00;99.90
21047;DHT22;10682;50.874;3.656;2023-11-21T14:06:58;12.00;99.90
21047;DHT22;10682;50.874;3.656;2023-11-21T14:09:28;11.90;99.90
21047;DHT22;10682;50.874;3.656;2023-11-21T14:12:10;12.00;99.90
21047;DHT22;10682;50.874;3.656;2023-11-21T14:14:40;12.00;99.90
21047;DHT22;10682;50.874;3.656;2023-11-21T14:17:07;12.00;99.90
21047;DHT22;10682;50.874;3.656;2023-11-21T14:19:34;12.00;99.90
21047;DHT22;10682;50.874;3.656;2023-11-21T14:22:06;12.10;99.90
21047;DHT22;10682;50.874;3.656;2023-11-21T14:24:36;12.10;99.90
21047;DHT22;10682;50.874;3.656;2023-11-21T14:27:04;12.20;99.90
21047;DHT22;10682;50.874;3.656;2023-11-21T14:29:33;12.20;99.90
21047;DHT22;10682;50.874;3.656;2023-11-21T14:32:05;12.10;99.90
21047;DHT22;10682;50.874;3.656;2023-11-21T14:34:34;12.10;99.90
21047;DHT22;10682;50.874;3.656;2023-11-21T14:37:01;12.00;99.90
21047;DHT22;10682;50.874;3.656;2023-11-21T14:39:32;12.00;99.90
21047;DHT22;10682;50.874;3.656;2023-11-21T14:42:04;12.00;99.90
21047;DHT22;10682;50.874;3.656;2023-11-21T14:44:34;12.00;99.90
21047;DHT22;10682;50.874;3.656;2023-11-21T14:47:05;12.00;99.90
21047;DHT22;10682;50.874;3.656;2023-11-21T14:50:16;11.90;99.90
21047;DHT22;10682;50.874;3.656;2023-11-21T14:53:01;11.90;99.90
21047;DHT22;10682;50.874;3.656;2023-11-21T14:55:35;11.80;99.90
21047;DHT22;10682;50.874;3.656;2023-11-21T14:58:27;11.80;99.90
21047;DHT22;10682;50.874;3.656;2023-11-21T15:00:55;11.70;99.90
21047;DHT22;10682;50.874;3.656;2023-11-21T15:03:27;11.70;99.90
21047;DHT22;10682;50.874;3.656;2023-11-21T15:06:05;11.60;99.90
21047;DHT22;10682;50.874;3.656;2023-11-21T15:08:55;11.60;99.90
21047;DHT22;10682;50.874;3.656;2023-11-21T15:11:50;11.60;99.90
21047;DHT22;10682;50.874;3.656;2023-11-21T15:14:21;11.50;99.90
21047;DHT22;10682;50.874;3.656;2023-11-21T15:16:51;11.50;99.90
21047;DHT22;10682;50.874;3.656;2023-11-21T15:19:23;11.50;99.90
21047;DHT22;10682;50.874;3.656;2023-11-21T15:21:53;11.50;99.90
21047;DHT22;10682;50.874;3.656;2023-11-21T15:24:20;11.50;99.90
21047;DHT22;10682;50.874;3.656;2023-11-21T15:26:47;11.40;99.90
21047;DHT22;10682;50.874;3.656;2023-11-21T15:29:14;11.40;99.90
21047;DHT22;10682;50.874;3.656;2023-11-21T15:31:43;11.40;99.90
21047;DHT22;10682;50.874;3.656;2023-11-21T15:34:15;11.40;99.90
21047;DHT22;10682;50.874;3.656;2023-11-21T15:36:43;11.40;99.90
21047;DHT22;10682;50.874;3.656;2023-11-21T15:39:10;11.40;99.90
21047;DHT22;10682;50.874;3.656;2023-11-21T15:41:38;11.40;99.90
21047;DHT22;10682;50.874;3.656;2023-11-21T15:44:07;11.30;99.90
21047;DHT22;10682;50.874;3.656;2023-11-21T15:46:37;11.30;99.90
21047;DHT22;10682;50.874;3.656;2023-11-21T15:49:07;11.30;99.90
21047;DHT22;10682;50.874;3.656;2023-11-21T15:51:40;11.30;99.90
21047;DHT22;10682;50.874;3.656;2023-11-21T15:54:20;11.30;99.90
21047;DHT22;10682;50.874;3.656;2023-11-21T15:56:56;11.30;99.90
21047;DHT22;10682;50.874;3.656;2023-11-21T15:59:24;11.20;99.90
21047;DHT22;10682;50.874;3.656;2023-11-21T16:02:00;11.20;99.90
21047;DHT22;10682;50.874;3.656;2023-11-21T16:04:32;11.10;99.90
21047;DHT22;10682;50.874;3.656;2023-11-21T16:06:59;11.10;99.90
21047;DHT22;10682;50.874;3.656;2023-11-21T16:09:27;11.10;99.90
21047;DHT22;10682;50.874;3.656;2023-11-21T16:12:15;11.10;99.90